KFCS

Butts AAF (Fort Carson) Airport

Fort Carson, Colorado, USA
TAF KFCS 190501Z 1905/2011 33012KT 9999 SKC QNH3012INS BECMG 1908/1909 34009KT 9999 FEW120 QNH3015INS BECMG 1916/1917 01015G25KT 9999 SKC QNH3027INS BECMG 1923/1924 VRB06KT 9999 SKC QNH3023INS BECMG 2006/2007 30006KT 9999 SKC QNH3030INS TX18/1921Z TN03/1912Z
Issued Valid From Valid To
Oct-19 @ 05:01 UTC
(4 hours ago)
Oct-19 @ 05:00 UTC
(4 hours ago)
Oct-20 @ 11:00 UTC
(-1 days ago)
Expired Click to View Oct-19 @ 05:00 to Oct-19 @ 08:00
TAF KFCS 190501Z 1905/2011 33012KT 9999 SKC QNH3012INS
Wind Visibility Clouds Readings
330° at 12 knots Greater than 6 miles
  • Clear skies
Altimeter 30.12" Hg
Pressure 1020 hPa
Becoming Oct-19 @ 08:00 to Oct-19 @ 16:00
BECMG 1908/1909 34009KT 9999 FEW120 QNH3015INS
Wind Visibility Clouds Readings
340° at 9 knots Greater than 6 miles
  • Few at 12,000' AGL
Altimeter 30.15" Hg
Pressure 1021 hPa
Becoming Oct-19 @ 16:00 to Oct-19 @ 23:00
BECMG 1916/1917 01015G25KT 9999 SKC QNH3027INS
Wind Visibility Clouds Readings
10° at 15 knots
 Gusting to 25 knots
Greater than 6 miles
  • Clear skies
Altimeter 30.27" Hg
Pressure 1025 hPa
Becoming Oct-19 @ 23:00 to Oct-20 @ 06:00
BECMG 1923/1924 VRB06KT 9999 SKC QNH3023INS
Wind Visibility Clouds Readings
Variable at 6 knots Greater than 6 miles
  • Clear skies
Altimeter 30.24" Hg
Pressure 1024 hPa
Becoming Oct-20 @ 06:00 to Oct-20 @ 11:00
BECMG 2006/2007 30006KT 9999 SKC QNH3030INS TX18/1921Z TN03/1912Z
Wind Visibility Clouds Readings
300° at 6 knots Greater than 6 miles
  • Clear skies
Altimeter 30.3" Hg
Pressure 1026 hPa
TAF KFCS 190501Z 1905/2011 33012KT 9999 SKC QNH3012INS BECMG 1908/1909 34009KT 9999 FEW120 QNH3015INS BECMG 1916/1917 01015G25KT 9999 SKC QNH3027INS BECMG 1923/1924 VRB06KT 9999 SKC QNH3023INS BECMG 2006/2007 30006KT 9999 SKC QNH3030INS TX18/1921Z TN03/1912Z
Issued Oct-19 @ 05:01 UTC
(4 hours ago)
Valid From Oct-19 @ 05:00 UTC
(4 hours ago)
Valid To Oct-20 @ 11:00 UTC
(-1 days ago)
Oct-19 @ 05:00 - Oct-19 @ 08:00
Wind Visibility
330° at 12 knots Greater than 6 miles
Clouds
  • Clear skies
Becoming Oct-19 @ 08:00 - Oct-19 @ 16:00
Wind Visibility
340° at 9 knots Greater than 6 miles
Clouds
  • Few at 12,000' AGL
Becoming Oct-19 @ 16:00 - Oct-19 @ 23:00
Wind Visibility
10° at 15 knots
 Gusting to 25 knots
Greater than 6 miles
Clouds
  • Clear skies
Becoming Oct-19 @ 23:00 - Oct-20 @ 06:00
Wind Visibility
Variable at 6 knots Greater than 6 miles
Clouds
  • Clear skies
Becoming Oct-20 @ 06:00 - Oct-20 @ 11:00
Wind Visibility
300° at 6 knots Greater than 6 miles
Clouds
  • Clear skies